Time;durP1;ratioP1;P1;durP2;ratioP2;P2;SDS_P1;SDS_P2;PMS_P1;PMS_P2;Temp;Humidity;BMP_temperature;BMP_pressure;BME280_temperature;BME280_humidity;BME280_pressure;Samples;Min_cycle;Max_cycle;Signal;HPM_P1;HPM_P2
2021/08/12 00:00:47;;;;;;;10.65;9.60;;;;;;;;;;5113019;27;20437;-69
2021/08/12 00:03:13;;;;;;;9.13;8.32;;;;;;;;;;5115112;27;20035;-69
2021/08/12 00:05:40;;;;;;;11.23;8.43;;;;;;;;;;5102881;27;20159;-69
2021/08/12 00:08:07;;;;;;;9.30;8.40;;;;;;;;;;5098034;27;20450;-69
2021/08/12 00:10:33;;;;;;;9.73;8.82;;;;;;;;;;5115946;27;20051;-69
2021/08/12 00:12:59;;;;;;;9.60;8.70;;;;;;;;;;5113152;27;20066;-69
2021/08/12 00:15:25;;;;;;;9.73;8.82;;;;;;;;;;5106071;27;20055;-68
2021/08/12 00:17:52;;;;;;;9.45;8.65;;;;;;;;;;5118959;27;20136;-68
2021/08/12 00:20:19;;;;;;;9.63;8.73;;;;;;;;;;5105588;27;20054;-68
2021/08/12 00:22:45;;;;;;;10.02;9.07;;;;;;;;;;5113516;27;20092;-68
2021/08/12 00:25:11;;;;;;;10.90;9.90;;;;;;;;;;5108858;27;20048;-68
2021/08/12 00:27:38;;;;;;;10.05;9.05;;;;;;;;;;5121407;27;20035;-68
2021/08/12 00:30:04;;;;;;;9.68;8.77;;;;;;;;;;5103896;27;20054;-68
2021/08/12 00:32:31;;;;;;;12.98;11.77;;;;;;;;;;5110921;27;20061;-68
2021/08/12 00:35:01;;;;;;;11.95;10.75;;;;;;;;;;5117658;27;20054;-68
2021/08/12 00:37:27;;;;;;;11.55;10.30;;;;;;;;;;5113103;27;20043;-68
2021/08/12 00:39:53;;;;;;;11.40;10.30;;;;;;;;;;5111015;27;20498;-68
2021/08/12 00:42:19;;;;;;;11.32;9.82;;;;;;;;;;5103930;27;20046;-68
2021/08/12 00:44:45;;;;;;;9.18;8.48;;;;;;;;;;5118003;27;20141;-68
2021/08/12 00:47:11;;;;;;;9.15;8.35;;;;;;;;;;5109849;27;20054;-68
2021/08/12 00:49:38;;;;;;;11.65;10.55;;;;;;;;;;5111837;27;20045;-68
2021/08/12 00:52:09;;;;;;;14.02;12.38;;;;;;;;;;5106942;27;20062;-68
2021/08/12 00:54:37;;;;;;;12.60;11.50;;;;;;;;;;5115171;27;20114;-68
2021/08/12 00:57:05;;;;;;;9.88;9.07;;;;;;;;;;5107847;27;20554;-68
2021/08/12 00:59:40;;;;;;;9.70;8.82;;;;;;;;;;5108992;27;20114;-68
2021/08/12 01:02:10;;;;;;;9.68;8.77;;;;;;;;;;5109337;27;20039;-68
2021/08/12 01:04:49;;;;;;;10.88;9.98;;;;;;;;;;5118828;27;20086;-68
2021/08/12 01:07:27;;;;;;;11.32;10.20;;;;;;;;;;5106324;27;20035;-68
2021/08/12 01:09:53;;;;;;;9.57;8.75;;;;;;;;;;5112226;27;20065;-68
2021/08/12 01:12:32;;;;;;;10.93;9.93;;;;;;;;;;5107347;27;20552;-68
2021/08/12 01:15:01;;;;;;;12.73;11.55;;;;;;;;;;5114358;27;20430;-68
2021/08/12 01:17:32;;;;;;;11.68;10.65;;;;;;;;;;5108932;27;20490;-68
2021/08/12 01:20:07;;;;;;;11.65;10.57;;;;;;;;;;5107973;27;20483;-68
2021/08/12 01:22:38;;;;;;;11.70;10.70;;;;;;;;;;5105918;27;20032;-68
2021/08/12 01:25:06;;;;;;;11.57;10.48;;;;;;;;;;5116240;27;20433;-68
2021/08/12 01:27:33;;;;;;;12.82;11.57;;;;;;;;;;5106736;27;20090;-68
2021/08/12 01:30:20;;;;;;;11.50;10.50;;;;;;;;;;5111123;27;20508;-68
2021/08/12 01:33:07;;;;;;;11.55;10.55;;;;;;;;;;5105720;27;20039;-68
2021/08/12 01:35:34;;;;;;;15.70;14.38;;;;;;;;;;5111018;27;20055;-68
2021/08/12 01:38:02;;;;;;;12.90;11.68;;;;;;;;;;5103942;27;20321;-68
2021/08/12 01:40:30;;;;;;;12.13;11.02;;;;;;;;;;5112105;27;20043;-68
2021/08/12 01:42:57;;;;;;;15.18;13.73;;;;;;;;;;5109127;27;20043;-68
2021/08/12 01:45:23;;;;;;;16.65;15.07;;;;;;;;;;5117566;27;20039;-68
2021/08/12 01:47:50;;;;;;;15.02;13.50;;;;;;;;;;5116736;27;20491;-68
2021/08/12 01:50:16;;;;;;;16.10;14.65;;;;;;;;;;5109220;27;20035;-68
2021/08/12 01:52:47;;;;;;;16.75;15.23;;;;;;;;;;5112482;27;20108;-68
2021/08/12 01:55:14;;;;;;;14.70;13.40;;;;;;;;;;5111056;27;20036;-68
2021/08/12 01:57:41;;;;;;;13.32;12.13;;;;;;;;;;5111753;27;20043;-68
2021/08/12 02:00:09;;;;;;;14.48;13.07;;;;;;;;;;5087136;28;20126;-68
2021/08/12 02:02:36;;;;;;;17.70;16.08;;;;;;;;;;5114894;28;20104;-68
2021/08/12 02:05:02;;;;;;;21.23;17.77;;;;;;;;;;5111955;27;20044;-68
2021/08/12 02:07:29;;;;;;;17.10;15.60;;;;;;;;;;5109534;28;20411;-68
2021/08/12 02:09:56;;;;;;;16.65;15.05;;;;;;;;;;5104707;28;20467;-68
2021/08/12 02:12:22;;;;;;;14.65;13.23;;;;;;;;;;5110234;28;20078;-68
2021/08/12 02:14:48;;;;;;;12.77;10.82;;;;;;;;;;5106975;28;20065;-68
2021/08/12 02:17:14;;;;;;;14.70;13.40;;;;;;;;;;5111811;28;20042;-68
2021/08/12 02:19:41;;;;;;;16.67;15.07;;;;;;;;;;5110650;27;20036;-68
2021/08/12 02:22:17;;;;;;;15.95;14.45;;;;;;;;;;5102442;27;20108;-68
2021/08/12 02:24:45;;;;;;;13.85;12.65;;;;;;;;;;5113206;27;20068;-68
2021/08/12 02:27:15;;;;;;;15.18;13.80;;;;;;;;;;5116064;27;20092;-68
2021/08/12 02:29:42;;;;;;;10.63;9.73;;;;;;;;;;5109964;27;20039;-68
2021/08/12 02:32:10;;;;;;;15.27;13.73;;;;;;;;;;5119358;27;20139;-68
2021/08/12 02:34:36;;;;;;;16.50;15.00;;;;;;;;;;5117694;27;20050;-68
2021/08/12 02:37:04;;;;;;;16.67;15.15;;;;;;;;;;5104456;27;20031;-68
2021/08/12 02:39:32;;;;;;;16.05;14.45;;;;;;;;;;5100680;27;20044;-68
2021/08/12 02:42:00;;;;;;;13.15;11.98;;;;;;;;;;5115261;27;20115;-68
2021/08/12 02:44:27;;;;;;;12.82;11.40;;;;;;;;;;5113739;27;20462;-68
2021/08/12 02:46:53;;;;;;;14.80;13.55;;;;;;;;;;5098599;27;20035;-68
2021/08/12 02:49:20;;;;;;;15.05;13.80;;;;;;;;;;5118689;27;20032;-68
2021/08/12 02:51:46;;;;;;;20.00;18.15;;;;;;;;;;5110027;27;20039;-68
2021/08/12 02:54:13;;;;;;;15.90;14.40;;;;;;;;;;5096508;27;20047;-68
2021/08/12 02:56:39;;;;;;;17.17;15.05;;;;;;;;;;5109130;27;20131;-68
2021/08/12 02:59:07;;;;;;;14.20;13.00;;;;;;;;;;5122064;27;20407;-68
2021/08/12 03:01:35;;;;;;;17.05;15.63;;;;;;;;;;5107618;27;20051;-68
2021/08/12 03:04:02;;;;;;;16.05;14.65;;;;;;;;;;5113057;27;20072;-68
2021/08/12 03:06:30;;;;;;;19.88;18.08;;;;;;;;;;5111191;27;20031;-68
2021/08/12 03:08:57;;;;;;;15.23;13.93;;;;;;;;;;5121773;27;20057;-68
2021/08/12 03:11:25;;;;;;;16.08;14.65;;;;;;;;;;5106452;27;20460;-68
2021/08/12 03:13:53;;;;;;;19.80;17.95;;;;;;;;;;5112287;27;20038;-68
2021/08/12 03:16:19;;;;;;;18.33;16.67;;;;;;;;;;5115095;27;20024;-68
2021/08/12 03:18:46;;;;;;;19.70;17.80;;;;;;;;;;5117679;27;20155;-68
2021/08/12 03:21:13;;;;;;;16.75;15.18;;;;;;;;;;5112658;27;20499;-68
2021/08/12 03:23:39;;;;;;;16.58;15.05;;;;;;;;;;5113023;27;20553;-68
2021/08/12 03:26:06;;;;;;;20.73;18.77;;;;;;;;;;5117202;27;20040;-68
2021/08/12 03:28:32;;;;;;;16.80;15.20;;;;;;;;;;5107641;27;20070;-68
2021/08/12 03:30:59;;;;;;;17.10;15.60;;;;;;;;;;5114626;27;20082;-68
2021/08/12 03:33:26;;;;;;;16.20;14.80;;;;;;;;;;5103561;27;20479;-68
2021/08/12 03:35:52;;;;;;;20.90;18.73;;;;;;;;;;5121563;27;20103;-68
2021/08/12 03:38:20;;;;;;;22.15;20.00;;;;;;;;;;5104981;27;20050;-68
2021/08/12 03:40:46;;;;;;;20.42;18.58;;;;;;;;;;5114392;27;20444;-68
2021/08/12 03:43:12;;;;;;;22.00;19.55;;;;;;;;;;5112765;27;20041;-68
2021/08/12 03:45:39;;;;;;;21.95;19.85;;;;;;;;;;5116584;27;20074;-68
2021/08/12 03:48:05;;;;;;;21.20;19.38;;;;;;;;;;5106556;27;20096;-68
2021/08/12 03:50:31;;;;;;;21.48;19.50;;;;;;;;;;5116630;27;20067;-68
2021/08/12 03:52:57;;;;;;;19.67;17.77;;;;;;;;;;5109632;27;20089;-68
2021/08/12 03:55:24;;;;;;;19.90;18.10;;;;;;;;;;5109385;27;20039;-68
2021/08/12 03:57:50;;;;;;;17.45;15.82;;;;;;;;;;5114001;27;20047;-68
2021/08/12 04:00:16;;;;;;;22.30;19.70;;;;;;;;;;5110026;27;20047;-68
2021/08/12 04:02:43;;;;;;;20.38;18.20;;;;;;;;;;5118027;27;20423;-68
2021/08/12 04:05:10;;;;;;;19.65;17.85;;;;;;;;;;5104967;27;20042;-68
2021/08/12 04:07:37;;;;;;;20.17;18.27;;;;;;;;;;5113336;27;20048;-68
2021/08/12 04:10:04;;;;;;;20.75;18.60;;;;;;;;;;5114193;27;20047;-68
2021/08/12 04:12:31;;;;;;;20.50;18.60;;;;;;;;;;5115214;27;20118;-68
2021/08/12 04:14:58;;;;;;;18.40;16.70;;;;;;;;;;5105047;27;20552;-68
2021/08/12 04:17:24;;;;;;;17.27;15.57;;;;;;;;;;5116733;27;20422;-68
2021/08/12 04:19:50;;;;;;;20.30;18.25;;;;;;;;;;5110876;27;20039;-68
2021/08/12 04:22:16;;;;;;;19.23;17.60;;;;;;;;;;5087552;27;20040;-68
2021/08/12 04:24:43;;;;;;;21.40;19.35;;;;;;;;;;5104585;27;20044;-68
2021/08/12 04:27:10;;;;;;;21.88;19.75;;;;;;;;;;5118788;27;20130;-68
2021/08/12 04:29:36;;;;;;;21.88;19.70;;;;;;;;;;5108286;27;20435;-68
2021/08/12 04:32:04;;;;;;;21.33;19.33;;;;;;;;;;5112335;27;20031;-68
2021/08/12 04:34:30;;;;;;;25.83;21.65;;;;;;;;;;5106130;27;20070;-68
2021/08/12 04:36:56;;;;;;;23.50;21.20;;;;;;;;;;5119667;27;20031;-68
2021/08/12 04:39:22;;;;;;;26.90;24.00;;;;;;;;;;5117345;27;20039;-68
2021/08/12 04:41:49;;;;;;;26.90;24.15;;;;;;;;;;5101243;27;20032;-68
2021/08/12 04:44:15;;;;;;;29.63;24.70;;;;;;;;;;5115573;27;20065;-67
2021/08/12 04:46:41;;;;;;;29.98;25.63;;;;;;;;;;5112579;27;20039;-67
2021/08/12 04:49:07;;;;;;;33.08;27.90;;;;;;;;;;5116899;27;20388;-67
2021/08/12 04:51:34;;;;;;;38.20;31.13;;;;;;;;;;5105119;27;20052;-67
2021/08/12 04:54:00;;;;;;;33.72;29.90;;;;;;;;;;5115699;27;20039;-67
2021/08/12 04:56:27;;;;;;;38.47;30.25;;;;;;;;;;5107904;27;20468;-67
2021/08/12 04:58:57;;;;;;;33.30;29.35;;;;;;;;;;5111716;27;20168;-67
2021/08/12 05:01:23;;;;;;;31.55;28.25;;;;;;;;;;5105398;27;20035;-67
2021/08/12 05:03:49;;;;;;;33.30;28.92;;;;;;;;;;5120312;27;20141;-67
2021/08/12 05:06:16;;;;;;;32.50;28.92;;;;;;;;;;5104655;27;20483;-67
2021/08/12 05:08:44;;;;;;;29.70;26.70;;;;;;;;;;5114089;27;20059;-67
2021/08/12 05:11:11;;;;;;;31.63;28.27;;;;;;;;;;5108237;27;20035;-67
2021/08/12 05:13:44;;;;;;;31.33;28.00;;;;;;;;;;5118401;27;20090;-67
2021/08/12 05:16:10;;;;;;;30.90;27.40;;;;;;;;;;5107413;27;20051;-67
2021/08/12 05:18:36;;;;;;;33.53;28.95;;;;;;;;;;5110327;27;20043;-67
2021/08/12 05:21:02;;;;;;;45.35;33.72;;;;;;;;;;5116252;27;20032;-67
2021/08/12 05:23:36;;;;;;;36.10;30.98;;;;;;;;;;5111931;27;20088;-67
2021/08/12 05:26:02;;;;;;;40.50;32.95;;;;;;;;;;5111688;27;20480;-68
2021/08/12 05:28:28;;;;;;;38.65;32.72;;;;;;;;;;5105641;27;20047;-68
2021/08/12 05:30:54;;;;;;;41.83;33.63;;;;;;;;;;5114959;27;20593;-68
2021/08/12 05:33:21;;;;;;;39.88;33.83;;;;;;;;;;5102345;27;20120;-68
2021/08/12 05:35:47;;;;;;;38.17;33.83;;;;;;;;;;5113613;27;20035;-68
2021/08/12 05:38:14;;;;;;;46.53;37.22;;;;;;;;;;5102664;28;20060;-67
2021/08/12 05:40:41;;;;;;;43.38;34.65;;;;;;;;;;5118403;27;20115;-67
2021/08/12 05:43:08;;;;;;;43.67;35.90;;;;;;;;;;5108253;27;20042;-67
2021/08/12 05:45:35;;;;;;;49.72;38.42;;;;;;;;;;5111808;27;20388;-67
2021/08/12 05:48:01;;;;;;;45.28;36.25;;;;;;;;;;5109307;27;20391;-67
2021/08/12 05:50:31;;;;;;;37.70;33.72;;;;;;;;;;5118063;27;20502;-68
2021/08/12 05:52:57;;;;;;;47.40;37.30;;;;;;;;;;5105085;27;20080;-68
2021/08/12 05:55:23;;;;;;;39.42;34.22;;;;;;;;;;5112512;27;20034;-68
2021/08/12 05:57:50;;;;;;;42.58;37.85;;;;;;;;;;5112166;27;20051;-68
2021/08/12 06:00:17;;;;;;;43.53;37.20;;;;;;;;;;5115597;27;20408;-68
2021/08/12 06:02:43;;;;;;;43.05;36.53;;;;;;;;;;5110127;27;20047;-68
2021/08/12 06:05:10;;;;;;;44.00;36.83;;;;;;;;;;5109384;28;20536;-68
2021/08/12 06:07:36;;;;;;;48.80;39.22;;;;;;;;;;5118114;27;20212;-68
2021/08/12 06:10:02;;;;;;;40.10;34.17;;;;;;;;;;5106129;28;20109;-68
2021/08/12 06:12:29;;;;;;;41.72;36.20;;;;;;;;;;5109136;28;20126;-68
2021/08/12 06:14:55;;;;;;;41.50;36.33;;;;;;;;;;5103440;28;20509;-68
2021/08/12 06:17:21;;;;;;;41.72;35.92;;;;;;;;;;5117320;28;20647;-68
2021/08/12 06:19:47;;;;;;;39.25;33.20;;;;;;;;;;5102562;28;20032;-68
2021/08/12 06:22:14;;;;;;;40.17;35.78;;;;;;;;;;5112049;28;20112;-68
2021/08/12 06:24:40;;;;;;;36.53;31.35;;;;;;;;;;5108803;28;20036;-68
2021/08/12 06:27:07;;;;;;;34.85;31.17;;;;;;;;;;5109434;28;20036;-69
2021/08/12 06:29:35;;;;;;;32.70;29.30;;;;;;;;;;5106583;28;20032;-69
2021/08/12 06:32:01;;;;;;;31.98;28.67;;;;;;;;;;5116629;28;20498;-69
2021/08/12 06:34:31;;;;;;;33.85;29.90;;;;;;;;;;5108970;28;20046;-69
2021/08/12 06:36:58;;;;;;;32.38;28.25;;;;;;;;;;5111992;28;20058;-69
2021/08/12 06:39:24;;;;;;;31.92;28.55;;;;;;;;;;5103629;28;20040;-69
2021/08/12 06:41:50;;;;;;;30.63;27.23;;;;;;;;;;5110668;28;20069;-69
2021/08/12 06:44:17;;;;;;;30.70;27.23;;;;;;;;;;5117138;28;20039;-69
2021/08/12 06:46:43;;;;;;;32.63;27.23;;;;;;;;;;5105227;28;20062;-69
2021/08/12 06:49:09;;;;;;;29.77;25.70;;;;;;;;;;5113174;28;20096;-69
2021/08/12 06:51:39;;;;;;;29.52;26.48;;;;;;;;;;5104974;28;20035;-69
2021/08/12 06:54:05;;;;;;;28.23;25.15;;;;;;;;;;5116031;28;20034;-69
2021/08/12 06:56:31;;;;;;;26.38;23.60;;;;;;;;;;5104711;28;20507;-69
2021/08/12 06:58:58;;;;;;;26.02;23.23;;;;;;;;;;5112421;28;20028;-69
2021/08/12 07:01:24;;;;;;;24.33;22.02;;;;;;;;;;5105218;28;20115;-69
2021/08/12 07:03:50;;;;;;;24.90;22.38;;;;;;;;;;5108725;28;20044;-69
2021/08/12 07:06:16;;;;;;;24.40;20.65;;;;;;;;;;5110544;27;20475;-69
2021/08/12 07:08:43;;;;;;;22.38;20.20;;;;;;;;;;5119323;27;20104;-69
2021/08/12 07:11:09;;;;;;;22.17;19.92;;;;;;;;;;5112468;27;20246;-69
2021/08/12 07:13:35;;;;;;;21.42;19.23;;;;;;;;;;5115156;27;20086;-69
2021/08/12 07:16:02;;;;;;;24.30;19.38;;;;;;;;;;5109850;27;20376;-69
2021/08/12 07:18:28;;;;;;;22.42;20.15;;;;;;;;;;5118551;27;20039;-69
2021/08/12 07:20:54;;;;;;;18.90;17.05;;;;;;;;;;5093231;27;20039;-70
2021/08/12 07:23:20;;;;;;;21.17;18.98;;;;;;;;;;5114847;27;20167;-70
2021/08/12 07:25:46;;;;;;;20.27;18.38;;;;;;;;;;5116621;27;21499;-70
2021/08/12 07:28:13;;;;;;;18.73;16.92;;;;;;;;;;5114095;27;20058;-70
2021/08/12 07:30:39;;;;;;;20.67;18.48;;;;;;;;;;5113895;27;20093;-70
2021/08/12 07:33:05;;;;;;;21.52;19.35;;;;;;;;;;5107923;27;20036;-70
2021/08/12 07:35:32;;;;;;;19.77;17.63;;;;;;;;;;5120303;27;20031;-70
2021/08/12 07:37:58;;;;;;;19.35;17.42;;;;;;;;;;5107172;27;20059;-70
2021/08/12 07:40:24;;;;;;;17.63;16.02;;;;;;;;;;5110648;27;20143;-70
2021/08/12 07:42:50;;;;;;;19.15;16.35;;;;;;;;;;5105580;27;20471;-70
2021/08/12 07:45:16;;;;;;;19.58;16.67;;;;;;;;;;5121099;27;20119;-70
2021/08/12 07:47:43;;;;;;;17.52;15.82;;;;;;;;;;5107717;27;20062;-70
2021/08/12 07:50:11;;;;;;;16.52;15.02;;;;;;;;;;5111767;27;20043;-70
2021/08/12 07:52:41;;;;;;;16.35;14.82;;;;;;;;;;5110769;27;20044;-70
2021/08/12 07:55:07;;;;;;;17.80;15.10;;;;;;;;;;5116973;27;20069;-70
2021/08/12 07:57:33;;;;;;;16.45;14.82;;;;;;;;;;5091470;27;20068;-70
2021/08/12 07:59:59;;;;;;;16.33;14.65;;;;;;;;;;5112175;27;20114;-70
2021/08/12 08:02:26;;;;;;;15.80;14.30;;;;;;;;;;5113152;27;20063;-70
2021/08/12 08:04:52;;;;;;;15.50;13.52;;;;;;;;;;5098956;27;20046;-70
2021/08/12 08:07:18;;;;;;;14.60;12.90;;;;;;;;;;5106893;27;20047;-70
2021/08/12 08:09:44;;;;;;;15.95;13.60;;;;;;;;;;5109231;27;20460;-70
2021/08/12 08:12:10;;;;;;;13.50;11.95;;;;;;;;;;5121160;27;20178;-70
2021/08/12 08:14:37;;;;;;;13.48;12.07;;;;;;;;;;5109775;27;20514;-70
2021/08/12 08:17:03;;;;;;;12.80;11.23;;;;;;;;;;5110684;27;20028;-70
2021/08/12 08:19:29;;;;;;;12.52;11.25;;;;;;;;;;5113180;27;20030;-70
2021/08/12 08:21:56;;;;;;;12.65;10.85;;;;;;;;;;5119881;27;20150;-70
2021/08/12 08:24:22;;;;;;;10.40;8.57;;;;;;;;;;5104652;27;20479;-70
2021/08/12 08:26:48;;;;;;;9.32;8.38;;;;;;;;;;5116022;27;20024;-70
2021/08/12 08:29:14;;;;;;;9.55;7.72;;;;;;;;;;5111175;27;20045;-71
2021/08/12 08:31:42;;;;;;;8.73;7.65;;;;;;;;;;5116426;27;20035;-71
2021/08/12 08:34:08;;;;;;;8.38;6.97;;;;;;;;;;5102498;27;20038;-71
2021/08/12 08:36:34;;;;;;;6.65;5.90;;;;;;;;;;5115136;27;20491;-71
2021/08/12 08:39:00;;;;;;;5.93;5.32;;;;;;;;;;5108554;27;20190;-71
2021/08/12 08:41:27;;;;;;;5.53;4.72;;;;;;;;;;5114269;27;20039;-71
2021/08/12 08:43:53;;;;;;;7.90;5.22;;;;;;;;;;5113000;27;20043;-71
2021/08/12 08:46:21;;;;;;;5.32;4.22;;;;;;;;;;5117702;27;20039;-71
2021/08/12 08:48:48;;;;;;;5.22;4.38;;;;;;;;;;5087985;27;20118;-71
2021/08/12 08:51:15;;;;;;;9.73;4.47;;;;;;;;;;5104966;27;20058;-71
2021/08/12 08:53:41;;;;;;;6.78;4.38;;;;;;;;;;5112505;27;20046;-71
2021/08/12 08:56:08;;;;;;;5.68;4.38;;;;;;;;;;5112369;27;20051;-71
2021/08/12 08:58:34;;;;;;;5.10;4.20;;;;;;;;;;5113753;27;20102;-71
2021/08/12 09:01:00;;;;;;;5.22;4.35;;;;;;;;;;5103090;27;20031;-72
2021/08/12 09:03:26;;;;;;;5.82;4.68;;;;;;;;;;5117583;27;20414;-72
2021/08/12 09:05:53;;;;;;;4.70;4.20;;;;;;;;;;5112020;27;20035;-72
2021/08/12 09:08:19;;;;;;;5.63;4.43;;;;;;;;;;5110695;27;20052;-72
2021/08/12 09:10:45;;;;;;;6.90;4.90;;;;;;;;;;5105741;27;20040;-72
2021/08/12 09:13:11;;;;;;;7.72;4.90;;;;;;;;;;5116484;27;20111;-72
2021/08/12 09:15:39;;;;;;;8.57;5.82;;;;;;;;;;5108857;27;20122;-72
2021/08/12 09:18:17;;;;;;;8.18;5.90;;;;;;;;;;5110117;27;20031;-72
2021/08/12 09:20:46;;;;;;;11.18;6.70;;;;;;;;;;5106588;27;20032;-72
2021/08/12 09:23:13;;;;;;;7.32;5.20;;;;;;;;;;5116020;27;20493;-72
2021/08/12 09:25:42;;;;;;;7.38;6.35;;;;;;;;;;5109740;27;20389;-72
2021/08/12 09:28:11;;;;;;;6.43;5.40;;;;;;;;;;5108798;27;20039;-72
2021/08/12 09:30:38;;;;;;;6.25;4.97;;;;;;;;;;5110755;27;20035;-72
2021/08/12 09:33:04;;;;;;;7.43;5.95;;;;;;;;;;5112058;27;20042;-72
2021/08/12 09:35:30;;;;;;;7.03;5.53;;;;;;;;;;5117162;27;20038;-71
2021/08/12 09:38:07;;;;;;;7.13;4.60;;;;;;;;;;5103311;27;20510;-72
2021/08/12 09:40:34;;;;;;;5.50;4.60;;;;;;;;;;5107654;27;20039;-72
2021/08/12 09:43:01;;;;;;;5.50;4.90;;;;;;;;;;5112843;27;20046;-72
2021/08/12 09:45:29;;;;;;;6.18;4.18;;;;;;;;;;5111802;27;20043;-72
2021/08/12 09:47:55;;;;;;;7.22;4.15;;;;;;;;;;5099679;27;20031;-72
2021/08/12 09:50:31;;;;;;;6.25;4.75;;;;;;;;;;5114630;27;20031;-72
2021/08/12 09:52:57;;;;;;;4.50;3.42;;;;;;;;;;5092461;28;20051;-72
2021/08/12 09:55:24;;;;;;;7.25;5.25;;;;;;;;;;5111441;27;20384;-72
2021/08/12 09:57:51;;;;;;;6.80;4.18;;;;;;;;;;5106005;27;20044;-72
2021/08/12 10:00:38;;;;;;;4.68;3.65;;;;;;;;;;5114947;27;20050;-72
2021/08/12 10:03:24;;;;;;;5.07;3.92;;;;;;;;;;5108520;27;20035;-72
2021/08/12 10:05:50;;;;;;;4.13;3.17;;;;;;;;;;5112894;28;20134;-72
2021/08/12 10:08:27;;;;;;;6.32;3.92;;;;;;;;;;5105587;27;20150;-72
2021/08/12 10:10:53;;;;;;;4.13;3.00;;;;;;;;;;5117075;28;20690;-72
2021/08/12 10:13:20;;;;;;;4.15;2.80;;;;;;;;;;5092227;28;20097;-72
2021/08/12 10:15:49;;;;;;;4.95;3.42;;;;;;;;;;5114789;28;20051;-72
2021/08/12 10:18:19;;;;;;;4.15;3.00;;;;;;;;;;5106332;28;20047;-72
2021/08/12 10:20:46;;;;;;;4.72;2.58;;;;;;;;;;5114091;28;20083;-72
2021/08/12 10:23:13;;;;;;;4.70;3.40;;;;;;;;;;5109343;28;20399;-72
2021/08/12 10:25:40;;;;;;;4.70;3.63;;;;;;;;;;5109947;28;20031;-72
2021/08/12 10:28:07;;;;;;;5.65;4.13;;;;;;;;;;5102276;28;20127;-72
2021/08/12 10:30:33;;;;;;;5.40;3.63;;;;;;;;;;5112404;28;20040;-72
2021/08/12 10:33:01;;;;;;;5.40;3.75;;;;;;;;;;5114735;28;20421;-72
2021/08/12 10:35:28;;;;;;;3.33;2.70;;;;;;;;;;5098480;28;20115;-72
2021/08/12 10:37:54;;;;;;;3.00;2.10;;;;;;;;;;5112056;28;20042;-72
2021/08/12 10:40:21;;;;;;;4.68;2.92;;;;;;;;;;5112236;27;20116;-72
2021/08/12 10:42:48;;;;;;;5.25;3.28;;;;;;;;;;5117458;27;20032;-72
2021/08/12 10:45:17;;;;;;;4.32;3.22;;;;;;;;;;5109664;27;20032;-72
2021/08/12 10:47:47;;;;;;;5.30;3.63;;;;;;;;;;5121672;27;20077;-72
2021/08/12 10:50:22;;;;;;;4.88;3.20;;;;;;;;;;5114466;27;20031;-72
2021/08/12 10:53:15;;;;;;;3.38;2.50;;;;;;;;;;5110392;27;20454;-72
2021/08/12 10:55:41;;;;;;;2.65;2.35;;;;;;;;;;5097887;27;20071;-72
2021/08/12 10:58:23;;;;;;;4.50;2.90;;;;;;;;;;5087702;28;20050;-72
2021/08/12 11:00:49;;;;;;;3.42;2.50;;;;;;;;;;5078720;27;20035;-72
2021/08/12 11:03:15;;;;;;;5.15;2.90;;;;;;;;;;5120016;27;20067;-72
2021/08/12 11:06:00;;;;;;;4.68;2.58;;;;;;;;;;5110629;27;20027;-72
2021/08/12 11:08:45;;;;;;;5.88;2.70;;;;;;;;;;5109385;27;20044;-72
2021/08/12 11:11:11;;;;;;;5.45;3.75;;;;;;;;;;5110705;27;20027;-72
2021/08/12 11:13:37;;;;;;;4.55;2.72;;;;;;;;;;5119573;27;20039;-72
2021/08/12 11:16:04;;;;;;;3.40;2.40;;;;;;;;;;5094482;27;20059;-72
2021/08/12 11:18:56;;;;;;;3.65;2.63;;;;;;;;;;5116002;27;20283;-72
2021/08/12 11:21:31;;;;;;;3.88;2.28;;;;;;;;;;5104476;27;20059;-72
2021/08/12 11:24:01;;;;;;;4.57;2.75;;;;;;;;;;5120626;27;20027;-72
2021/08/12 11:26:47;;;;;;;4.40;2.10;;;;;;;;;;5109035;27;20059;-72
2021/08/12 11:29:23;;;;;;;4.72;2.38;;;;;;;;;;5114107;27;20063;-72
2021/08/12 11:31:49;;;;;;;5.15;2.33;;;;;;;;;;5110995;27;20054;-72
2021/08/12 11:34:35;;;;;;;3.88;2.20;;;;;;;;;;5122071;27;20031;-72
2021/08/12 11:37:07;;;;;;;3.22;2.20;;;;;;;;;;5107701;27;20031;-72
2021/08/12 11:39:34;;;;;;;4.80;2.65;;;;;;;;;;5112569;27;20173;-72
2021/08/12 11:42:00;;;;;;;4.13;2.80;;;;;;;;;;5110164;27;20035;-72
2021/08/12 11:44:27;;;;;;;6.68;3.38;;;;;;;;;;5118562;27;20051;-73
2021/08/12 11:46:53;;;;;;;5.22;3.00;;;;;;;;;;5116223;27;20494;-73
2021/08/12 11:49:19;;;;;;;5.78;3.03;;;;;;;;;;5114545;27;20038;-72
2021/08/12 11:51:46;;;;;;;4.38;3.00;;;;;;;;;;5109013;27;20103;-72
2021/08/12 11:54:23;;;;;;;5.22;3.20;;;;;;;;;;5115780;27;20051;-72
2021/08/12 11:56:51;;;;;;;4.43;3.28;;;;;;;;;;5111138;27;20039;-72
2021/08/12 11:59:23;;;;;;;5.93;3.58;;;;;;;;;;5109707;27;20036;-72
2021/08/12 12:01:50;;;;;;;5.63;3.65;;;;;;;;;;5094799;27;20478;-72
2021/08/12 12:04:16;;;;;;;4.15;3.10;;;;;;;;;;5102815;27;20043;-72
2021/08/12 12:06:48;;;;;;;5.65;3.88;;;;;;;;;;5086404;27;20071;-72
2021/08/12 12:09:36;;;;;;;5.00;4.50;;;;;;;;;;5109424;27;20036;-72
2021/08/12 12:12:06;;;;;;;5.53;4.00;;;;;;;;;;5107268;27;20487;-72
2021/08/12 12:14:34;;;;;;;4.90;4.00;;;;;;;;;;5118471;27;20040;-72
2021/08/12 12:17:06;;;;;;;4.60;3.92;;;;;;;;;;5112702;27;20050;-72
2021/08/12 12:19:32;;;;;;;6.32;3.90;;;;;;;;;;5089647;28;20482;-72
2021/08/12 12:21:58;;;;;;;5.13;4.18;;;;;;;;;;5097022;28;20119;-72
2021/08/12 12:24:25;;;;;;;5.68;3.97;;;;;;;;;;5111816;27;20063;-72
2021/08/12 12:26:58;;;;;;;4.70;3.70;;;;;;;;;;5112994;27;20031;-72
2021/08/12 12:29:25;;;;;;;6.00;3.67;;;;;;;;;;5103015;27;20040;-72
2021/08/12 12:32:01;;;;;;;5.57;4.32;;;;;;;;;;5114946;27;20047;-72
2021/08/12 12:34:27;;;;;;;5.03;3.50;;;;;;;;;;5078513;28;20048;-72
2021/08/12 12:36:54;;;;;;;4.50;4.10;;;;;;;;;;5113150;27;20035;-72
2021/08/12 12:39:20;;;;;;;3.67;3.38;;;;;;;;;;5107688;27;20077;-72
2021/08/12 12:41:47;;;;;;;4.20;3.15;;;;;;;;;;5117457;27;20107;-72
2021/08/12 12:44:15;;;;;;;5.03;3.72;;;;;;;;;;5109160;27;20051;-72
2021/08/12 12:46:42;;;;;;;4.55;3.63;;;;;;;;;;5115160;27;20548;-72
2021/08/12 12:49:23;;;;;;;5.95;3.80;;;;;;;;;;5107491;27;20044;-72
2021/08/12 12:51:50;;;;;;;4.43;3.53;;;;;;;;;;5119969;27;20043;-71
2021/08/12 12:54:16;;;;;;;5.72;4.13;;;;;;;;;;5104228;27;20484;-71
2021/08/12 12:56:43;;;;;;;6.00;3.90;;;;;;;;;;5098507;27;20062;-71
2021/08/12 12:59:13;;;;;;;5.43;3.75;;;;;;;;;;5110246;27;20422;-71
2021/08/12 13:01:39;;;;;;;4.60;3.22;;;;;;;;;;5117945;27;20539;-71
2021/08/12 13:04:05;;;;;;;4.38;3.40;;;;;;;;;;5106369;27;20402;-72
2021/08/12 13:06:35;;;;;;;5.05;3.63;;;;;;;;;;5111060;27;20069;-72
2021/08/12 13:09:02;;;;;;;4.47;3.67;;;;;;;;;;5114376;27;20503;-72
2021/08/12 13:11:29;;;;;;;6.00;3.45;;;;;;;;;;5089446;28;20050;-72
2021/08/12 13:14:06;;;;;;;5.93;4.00;;;;;;;;;;5111974;27;20035;-72
2021/08/12 13:16:43;;;;;;;4.53;3.17;;;;;;;;;;5104788;27;20087;-72
2021/08/12 13:19:23;;;;;;;4.32;3.60;;;;;;;;;;5117689;27;20055;-72
2021/08/12 13:21:50;;;;;;;6.38;4.10;;;;;;;;;;5109903;27;20043;-72
2021/08/12 13:24:17;;;;;;;6.22;3.80;;;;;;;;;;5113409;27;20039;-72
2021/08/12 13:27:02;;;;;;;5.28;3.78;;;;;;;;;;5106341;27;20055;-72
2021/08/12 13:29:28;;;;;;;5.55;4.10;;;;;;;;;;5109111;27;20111;-72
2021/08/12 13:32:03;;;;;;;7.22;4.00;;;;;;;;;;5104429;27;20205;-72
2021/08/12 13:34:29;;;;;;;5.10;3.50;;;;;;;;;;5110209;27;20036;-72
2021/08/12 13:36:56;;;;;;;4.95;3.83;;;;;;;;;;5105163;27;20047;-71
2021/08/12 13:39:22;;;;;;;5.72;3.50;;;;;;;;;;5114863;27;20048;-71
2021/08/12 13:41:50;;;;;;;6.25;3.30;;;;;;;;;;5114247;27;20039;-71
2021/08/12 13:44:17;;;;;;;5.45;3.55;;;;;;;;;;5111819;27;20532;-71
2021/08/12 13:46:43;;;;;;;4.45;4.03;;;;;;;;;;5108576;27;20036;-71
2021/08/12 13:49:09;;;;;;;4.65;3.90;;;;;;;;;;5115480;27;20104;-71
2021/08/12 13:51:35;;;;;;;5.07;3.90;;;;;;;;;;5112302;27;20046;-72
2021/08/12 13:54:02;;;;;;;6.35;4.05;;;;;;;;;;5110708;27;20102;-71
2021/08/12 13:56:28;;;;;;;6.40;3.75;;;;;;;;;;5106359;27;20039;-71
2021/08/12 13:58:54;;;;;;;6.40;4.13;;;;;;;;;;5114809;27;20453;-71
2021/08/12 14:01:20;;;;;;;3.88;3.38;;;;;;;;;;5105936;27;20044;-71
2021/08/12 14:03:46;;;;;;;5.60;3.95;;;;;;;;;;5110041;28;20493;-71
2021/08/12 14:06:13;;;;;;;4.85;4.18;;;;;;;;;;5117891;27;20351;-71
2021/08/12 14:08:39;;;;;;;5.85;3.80;;;;;;;;;;5106855;27;20048;-71
2021/08/12 14:11:05;;;;;;;7.45;5.07;;;;;;;;;;5110848;27;20129;-71
2021/08/12 14:13:31;;;;;;;4.25;3.85;;;;;;;;;;5102590;28;20035;-71
2021/08/12 14:15:57;;;;;;;5.22;3.53;;;;;;;;;;5115092;28;20365;-71
2021/08/12 14:18:23;;;;;;;5.82;3.80;;;;;;;;;;5112237;28;20525;-71
2021/08/12 14:20:50;;;;;;;5.43;3.58;;;;;;;;;;5094877;28;20051;-71
2021/08/12 14:23:16;;;;;;;7.38;4.00;;;;;;;;;;5104240;28;20127;-71
2021/08/12 14:25:42;;;;;;;6.78;3.88;;;;;;;;;;5119835;28;20038;-71
2021/08/12 14:28:08;;;;;;;4.95;3.88;;;;;;;;;;5104907;28;20061;-71
2021/08/12 14:30:34;;;;;;;3.83;3.00;;;;;;;;;;5112546;28;20032;-71
2021/08/12 14:33:01;;;;;;;6.80;3.63;;;;;;;;;;5107909;28;20042;-71